Wheat Ridge, Colorado
Current Conditions -  °F | °C
As of 11:55 PM on Sunday 23 Nov 2014 (Local Time) from KBJC Reporting Station
Clear Clear  
Wind Chill: 26°   Ceiling: Unl
Heat Index: 32°   Visibility: 10mi
Dew Point:   Wind: 7mph
Humidity: 30%   Direction: 330°NNW
Pressure: 29.88"   Gusts: 25mph
Location:  39.76°N, 105.08°W
Report Text: KBJC 240655Z AUTO 33006G22KT 10SM CLR 00/M16 A2988 RMK AO2
Loading
Personal Weather Stations






























Interactive Weather Map New forecast layout! Learn more

10-Day Weather Forecast

Advertisements
Track Severe Weather on mobile